Latest Weather Observations for Double Island Point

IDQ60801

Issued at 7:32 am EST Tuesday 23 December 2014 (issued every 30 minutes, with the page automatically refreshed every 10 minutes)

About weather observations | Map of weather stations | Latest weather observations for QLD | Other Formats
Station Details ID: 040068 Name: DOUBLE ISLAND POINT LIGHTHOUSE Lat: -25.93 Lon: 153.19 Height: 95.64 m
Data from the previous 72 hours. | See also: Recent months at Double Island Point
Date/Time
EST
Temp
°C
App
Temp
°C
Dew
Point
Rel
Hum
%
Delta-T
°C
Wind Press
QNH
hPa
Press
MSL
hPa
Rain
since 9 am
mm
Dir
 
Spd
km/h
Gust
km/h
Spd
kts
Gust
kts
23/07:30am 25.4 23.4 16.5 58 5.5 SE 22 26 12 14 1016.0 1015.5 0.0
23/07:00am 24.6 22.1 15.2 55 5.7 SE 22 28 12 15 1015.9 1015.4 0.0
23/06:30am 24.4 21.8 15.9 59 5.2 ESE 24 30 13 16 1015.5 1015.0 0.0
23/06:00am 23.9 21.3 15.9 61 4.9 ESE 24 30 13 16 1015.3 1014.8 0.0
23/05:30am 23.0 20.2 16.3 66 4.1 ESE 26 32 14 17 1015.3 1014.8 0.0
23/05:00am 22.3 19.7 15.9 67 3.9 SE 24 30 13 16 1015.0 1014.5 0.0
23/04:30am 22.3 19.7 15.9 67 3.9 SE 24 32 13 17 1014.9 1014.4 0.0
23/04:00am 22.3 19.0 16.1 68 3.8 SE 28 35 15 19 1014.6 1014.1 0.0
23/03:30am 22.2 18.8 15.8 67 3.9 ESE 28 33 15 18 1014.6 1014.1 0.0
23/03:00am 22.3 18.8 15.4 65 4.1 ESE 28 33 15 18 1014.7 1014.2 0.0
23/02:30am 22.3 18.3 15.2 64 4.2 ESE 30 35 16 19 1014.7 1014.2 0.0
23/02:00am 22.4 18.2 15.7 66 4.0 ESE 32 39 17 21 1014.7 1014.2 0.0
23/01:30am 22.5 18.3 15.6 65 4.2 ESE 32 39 17 21 1014.8 1014.3 0.0
23/01:00am 22.5 18.3 16.1 67 3.9 ESE 33 41 18 22 1015.1 1014.6 0.0
23/12:30am 22.6 18.0 16.2 67 3.9 ESE 35 41 19 22 1015.4 1014.9 0.0
23/12:00am 22.7 17.9 16.7 69 3.7 ESE 37 43 20 23 1015.8 1015.3 0.0
 
Date/Time
EST
Temp
°C
App
Temp
°C
Dew
Point
Rel
Hum
%
Delta-T
°C
Wind Press
QNH
hPa
Press
MSL
hPa
Rain
since 9 am
mm
Dir
 
Spd
km/h
Gust
km/h
Spd
kts
Gust
kts
22/11:30pm 22.7 18.3 16.7 69 3.7 ESE 35 41 19 22 1016.1 1015.6 0.0
22/11:00pm 22.7 18.2 16.5 68 3.8 ESE 35 43 19 23 1016.3 1015.8 0.0
22/10:30pm 23.0 18.6 17.5 71 3.4 ESE 37 44 20 24 1016.4 1015.9 0.0
22/10:00pm 23.0 18.4 17.2 70 3.6 ESE 37 46 20 25 1016.7 1016.2 0.0
22/09:30pm 23.1 19.3 17.1 69 3.7 ESE 33 39 18 21 1016.7 1016.2 0.0
22/09:00pm 23.1 19.0 17.3 70 3.6 ESE 35 39 19 21 1016.6 1016.1 0.0
22/08:30pm 23.1 18.9 17.1 69 3.7 ESE 35 43 19 23 1016.4 1015.9 0.0
22/08:00pm 23.2 19.0 17.2 69 3.7 ESE 35 43 19 23 1016.4 1015.9 0.0
22/07:30pm 23.2 18.9 17.0 68 3.8 SE 35 41 19 22 1016.5 1016.0 0.0
22/07:00pm 23.2 18.6 17.0 68 3.8 SE 37 44 20 24 1016.0 1015.5 0.0
22/06:30pm 23.3 18.5 16.6 66 4.1 ESE 37 43 20 23 1015.7 1015.2 0.0
22/06:00pm 23.4 18.4 16.2 64 4.4 ESE 37 43 20 23 1015.3 1014.8 0.0
22/05:30pm 24.1 19.6 16.4 62 4.7 SE 35 43 19 23 1015.1 1014.6 0.0
22/05:00pm 24.1 19.1 16.1 61 4.9 SE 37 44 20 24 1015.1 1014.6 0.0
22/04:30pm 24.5 19.7 16.7 61 4.8 SE 37 44 20 24 1015.1 1014.6 0.0
22/04:00pm 24.8 19.5 15.4 56 5.7 SE 37 44 20 24 1014.8 1014.3 0.0
22/03:30pm 24.5 18.9 15.4 57 5.5 SE 39 44 21 24 1014.8 1014.3 0.0
22/03:00pm 25.5 21.2 16.9 59 5.3 SE 35 41 19 22 1015.2 1014.7 0.0
22/02:30pm 24.7 19.8 15.3 56 5.7 SE 35 44 19 24 1015.5 1015.0 0.0
22/02:00pm 25.6 21.1 16.4 56 5.7 SE 35 44 19 24 1015.7 1015.2 0.0
22/01:30pm 26.1 21.7 16.6 55 5.9 SE 35 43 19 23 1016.1 1015.6 0.0
22/01:00pm 26.0 21.5 16.3 55 6.0 SE 35 39 19 21 1016.4 1015.9 0.0
22/12:30pm 26.7 22.5 17.2 56 6.0 SE 35 43 19 23 1016.8 1016.3 0.0
22/12:00pm 26.0 21.4 17.1 58 5.6 SE 37 41 20 22 1017.0 1016.5 0.0
22/11:30am 25.9 21.1 16.5 56 5.8 SE 37 43 20 23 1017.3 1016.8 0.0
22/11:00am 25.2 20.4 16.6 59 5.3 SE 37 43 20 23 1017.4 1016.9 0.0
22/10:30am 26.5 22.5 17.6 58 5.6 SE 35 43 19 23 1017.5 1017.0 0.0
22/10:00am 25.9 21.8 17.3 59 5.4 SE 35 43 19 23 1017.5 1017.0 0.0
22/09:30am 25.7 21.2 16.3 56 5.8 SE 35 41 19 22 1017.3 1016.8 0.0
22/09:00am 25.6 21.0 16.2 56 5.8 SE 35 44 19 24 1017.3 1016.8 0.0
22/08:30am 25.8 21.8 16.6 56 5.7 SE 33 50 18 27 1017.1 1016.6 0.0
22/08:00am 24.9 19.9 16.1 58 5.4 SE 37 43 20 23 1016.9 1016.4 0.0
22/07:30am 23.9 19.4 16.4 63 4.6 SE 35 41 19 22 1016.6 1016.1 0.0
22/07:00am 24.2 19.7 16.5 62 4.7 SE 35 43 19 23 1016.4 1015.9 0.0
22/06:30am 24.2 19.6 16.2 61 4.9 SE 35 39 19 21 1016.3 1015.8 0.0
22/06:00am 23.7 18.5 14.4 56 5.5 SE 35 43 19 23 1015.9 1015.4 0.0
22/05:30am 23.2 18.7 15.5 62 4.6 SE 33 39 18 21 1015.7 1015.2 0.0
22/05:00am 22.7 18.4 15.8 65 4.2 SE 33 39 18 21 1015.3 1014.8 0.0
22/04:30am 22.8 19.1 17.0 70 3.6 ESE 32 37 17 20 1015.2 1014.7 0.0
22/04:00am 22.8 20.2 16.8 69 3.7 SE 26 32 14 17 1015.0 1014.5 0.0
22/03:30am 22.8 19.6 16.4 67 3.9 SE 28 35 15 19 1014.8 1014.3 0.0
22/03:00am 22.8 20.1 16.6 68 3.8 SE 26 32 14 17 1014.9 1014.4 0.0
22/02:30am 22.7 19.9 16.3 67 3.9 SE 26 32 14 17 1015.0 1014.5 0.0
22/02:00am 22.7 19.8 16.0 66 4.1 ESE 26 33 14 18 1015.3 1014.8 0.0
22/01:30am 22.7 19.5 16.3 67 3.9 ESE 28 35 15 19 1015.6 1015.1 0.0
22/01:00am 22.7 19.1 16.3 67 3.9 ESE 30 35 16 19 1015.9 1015.4 0.0
22/12:30am 22.7 19.5 16.3 67 3.9 ESE 28 33 15 18 1016.3 1015.8 0.0
22/12:00am 22.8 18.9 15.6 64 4.3 SE 30 37 16 20 1016.8 1016.3 0.0
 
Date/Time
EST
Temp
°C
App
Temp
°C
Dew
Point
Rel
Hum
%
Delta-T
°C
Wind Press
QNH
hPa
Press
MSL
hPa
Rain
since 9 am
mm
Dir
 
Spd
km/h
Gust
km/h
Spd
kts
Gust
kts
21/11:30pm 22.8 18.9 16.4 67 3.9 SE 32 37 17 20 1017.2 1016.7 0.0
21/11:00pm 22.9 19.3 16.2 66 4.1 ESE 30 33 16 18 1017.4 1016.9 0.0
21/10:30pm 23.0 19.7 17.0 69 3.7 ESE 30 37 16 20 1017.9 1017.4 0.0
21/10:00pm 23.0 19.9 17.5 71 3.4 ESE 30 35 16 19 1017.8 1017.3 0.0
21/09:30pm 23.2 20.1 17.4 70 3.6 ESE 30 39 16 21 1017.6 1017.1 0.0
21/09:00pm 23.1 19.5 17.1 69 3.7 ESE 32 37 17 20 1017.1 1016.6 0.0
21/08:30pm 23.1 19.2 16.9 68 3.8 ESE 33 37 18 20 1017.2 1016.7 0.0
21/08:00pm 23.3 19.7 17.1 68 3.8 E 32 37 17 20 1017.1 1016.6 0.0
21/07:30pm 23.3 19.5 16.8 67 4.0 ESE 32 41 17 22 1016.7 1016.2 0.0
21/07:00pm 23.5 19.9 17.3 68 3.8 ESE 32 39 17 21 1016.2 1015.7 0.0
21/06:30pm 23.6 20.8 17.3 67 3.9 ESE 28 35 15 19 1016.1 1015.6 0.0
21/06:00pm 23.8 20.6 17.3 67 4.0 ESE 30 35 16 19 1015.8 1015.3 0.0
21/05:30pm 24.4 20.7 16.9 63 4.6 E 32 37 17 20 1015.6 1015.1 0.0
21/05:00pm 24.6 20.8 16.8 62 4.8 ESE 32 37 17 20 1015.5 1015.0 0.0
21/04:30pm 25.0 22.1 17.0 61 5.0 ESE 28 32 15 17 1015.4 1014.9 0.0
21/04:00pm 25.6 22.9 17.5 61 5.1 E 28 33 15 18 1015.4 1014.9 0.0
21/03:30pm 25.8 23.3 17.2 59 5.4 ESE 26 32 14 17 1015.5 1015.0 0.0
21/03:00pm 26.3 24.2 17.1 57 5.7 ESE 24 32 13 17 1015.8 1015.3 0.0
21/02:30pm 26.8 24.5 17.6 57 5.8 ESE 26 30 14 16 1015.9 1015.4 0.0
21/02:00pm 27.2 25.8 17.9 56 5.9 ESE 22 30 12 16 1016.3 1015.8 0.0
21/01:30pm 26.6 24.4 16.8 55 6.1 ESE 24 30 13 16 1016.6 1016.1 0.0
21/01:00pm 27.0 24.9 17.2 55 6.1 ESE 24 28 13 15 1016.8 1016.3 0.0
21/12:30pm 27.2 25.4 17.9 56 5.9 ESE 24 30 13 16 1017.1 1016.6 0.0
21/12:00pm 27.1 25.2 17.6 56 6.0 ESE 24 28 13 15 1017.6 1017.1 0.0
21/11:30am 27.3 25.9 18.0 56 5.9 ESE 22 28 12 15 1017.8 1017.3 0.0
21/11:00am 27.6 26.6 18.0 55 6.1 ESE 20 28 11 15 1018.0 1017.5 0.0
21/10:30am 26.2 24.3 16.7 56 5.9 ESE 22 28 12 15 1018.0 1017.5 0.0
21/10:00am 27.4 26.5 17.8 55 6.1 ESE 19 24 10 13 1018.0 1017.5 0.0
21/09:30am 27.4 25.9 17.8 55 6.1 E 22 28 12 15 1017.9 1017.4 0.0
21/09:00am 27.3 25.8 17.8 56 6.0 E 22 28 12 15 1017.8 1017.3 0.0
21/08:30am 26.7 24.5 16.9 55 6.1 E 24 30 13 16 1017.9 1017.4 0.0
21/08:00am 26.5 24.6 17.6 58 5.6 E 24 28 13 15 1017.8 1017.3 0.0
21/07:30am 25.7 22.9 17.4 60 5.2 E 28 33 15 18 1017.4 1016.9 0.0
21/07:00am 25.2 21.9 16.9 60 5.1 E 30 35 16 19 1017.0 1016.5 0.0
21/06:30am 23.7 20.4 17.0 66 4.1 ESE 30 37 16 20 1016.7 1016.2 0.0
21/06:00am 23.8 20.9 17.1 66 4.1 E 28 35 15 19 1016.5 1016.0 0.0
21/05:30am 23.4 20.1 16.9 67 4.0 E 30 37 16 20 1016.2 1015.7 0.0
21/05:00am 23.1 20.5 16.9 68 3.8 E 26 32 14 17 1015.9 1015.4 0.0
21/04:30am 23.0 19.8 17.2 70 3.6 E 30 35 16 19 1015.4 1014.9 0.0
21/04:00am 23.1 19.7 17.6 71 3.4 E 32 37 17 20 1015.1 1014.6 0.0
21/03:30am 23.1 19.5 17.3 70 3.6 E 32 37 17 20 1015.0 1014.5 0.0
21/03:00am 23.2 19.8 17.6 71 3.5 E 32 37 17 20 1015.0 1014.5 0.0
21/02:30am 23.2 20.4 18.3 74 3.1 E 30 35 16 19 1015.1 1014.6 0.0
21/02:00am 23.4 20.6 18.3 73 3.2 E 30 35 16 19 1015.2 1014.7 0.0
21/01:30am 23.5 20.9 18.6 74 3.1 E 30 37 16 20 1015.3 1014.8 0.0
21/01:00am 23.5 20.4 18.4 73 3.2 E 32 35 17 19 1015.4 1014.9 0.0
21/12:30am 23.6 20.9 18.5 73 3.2 E 30 35 16 19 1015.7 1015.2 0.0
21/12:00am 23.7 21.1 18.6 73 3.2 E 30 35 16 19 1016.0 1015.5 0.0
 
Date/Time
EST
Temp
°C
App
Temp
°C
Dew
Point
Rel
Hum
%
Delta-T
°C
Wind Press
QNH
hPa
Press
MSL
hPa
Rain
since 9 am
mm
Dir
 
Spd
km/h
Gust
km/h
Spd
kts
Gust
kts
20/11:30pm 23.8 20.9 18.9 74 3.1 E 32 37 17 20 1016.3 1015.8 0.0
20/11:00pm 23.8 20.8 18.7 73 3.2 E 32 35 17 19 1016.5 1016.0 0.0
20/10:30pm 23.9 20.9 19.0 74 3.1 E 33 37 18 20 1016.4 1015.9 0.0
20/10:00pm 23.9 21.2 19.2 75 3.0 E 32 37 17 20 1016.4 1015.9 0.0
20/09:30pm 23.9 20.6 19.2 75 3.0 E 35 41 19 22 1016.2 1015.7 0.0
20/09:00pm 24.1 20.4 19.2 74 3.1 E 37 41 20 22 1016.1 1015.6 0.0
20/08:30pm 24.1 19.7 19.2 74 3.1 E 41 44 22 24 1015.8 1015.3 0.0
20/08:00pm 24.1 20.1 19.4 75 3.0 E 39 43 21 23 1015.4 1014.9 0.0
20/07:30pm 24.4 20.7 19.2 73 3.3 E 37 41 20 22 1015.0 1014.5 0.0
20/07:00pm 24.4 20.9 19.5 74 3.2 E 37 44 20 24 1014.5 1014.0 0.0
20/06:30pm 24.7 21.5 19.5 73 3.4 E 35 41 19 22 1013.9 1013.4 0.0
20/06:00pm 24.7 21.8 19.3 72 3.5 E 33 37 18 20 1013.9 1013.4 0.0
20/05:30pm 25.5 23.6 19.4 69 3.9 E 28 33 15 18 1013.6 1013.1 0.0
20/05:00pm 25.9 24.5 18.8 65 4.5 E 24 32 13 17 1013.5 1013.0 0.0
20/04:30pm 26.4 24.7 19.8 67 4.3 E 28 32 15 17 1012.9 1012.5 0.0
20/04:00pm 26.2 24.6 19.1 65 4.6 E 26 32 14 17 1013.0 1012.6 0.0
20/03:30pm 26.8 25.3 19.4 64 4.8 ESE 26 30 14 16 1013.0 1012.6 0.0
20/03:00pm 27.2 25.4 19.5 62 5.0 ESE 28 33 15 18 1013.1 1012.7 0.0
20/02:30pm 27.2 25.9 19.0 61 5.3 ESE 24 30 13 16 1013.6 1013.1 0.0
20/02:00pm 27.4 26.4 18.9 59 5.5 ESE 22 28 12 15 1013.9 1013.4 0.0
20/01:30pm 27.7 27.1 19.8 62 5.2 ESE 22 28 12 15 1014.3 1013.8 0.0
20/01:00pm 27.7 26.5 19.2 60 5.5 ESE 24 30 13 16 1014.3 1013.8 0.0
20/12:30pm 27.8 26.4 19.6 61 5.3 ESE 26 32 14 17 1014.5 1014.0 0.0
20/12:00pm 27.8 26.5 19.1 59 5.6 ESE 24 32 13 17 1014.8 1014.3 0.0
20/11:30am 27.7 26.3 18.7 58 5.8 ESE 24 30 13 16 1015.2 1014.7 0.0
20/11:00am 28.0 26.7 19.0 58 5.8 ESE 24 30 13 16 1015.5 1015.0 0.0
20/10:30am 28.0 26.5 19.5 60 5.5 ESE 26 32 14 17 1015.7 1015.2 0.0
20/10:00am 27.9 27.0 19.9 61 5.2 ESE 24 30 13 16 1015.8 1015.3 0.0
20/09:30am 27.5 26.1 19.6 62 5.1 ESE 26 32 14 17 1015.7 1015.2 0.0
20/09:00am 27.1 25.8 19.9 64 4.7 ESE 26 32 14 17 1015.6 1015.1 0.4
20/08:30am 26.9 25.0 19.3 63 4.9 ESE 28 33 15 18 1015.4 1014.9 0.4
20/08:00am 26.5 23.6 18.9 63 4.9 SE 32 35 17 19 1015.1 1014.6 0.4

Other Formats:

Comma delimited format used in spreadsheet applications
http://www.bom.gov.au/fwo/IDQ60801/IDQ60801.94584.axf

JavaScript Object Notation format (JSON) in row-major order
http://www.bom.gov.au/fwo/IDQ60801/IDQ60801.94584.json